Time;durP1;ratioP1;P1;durP2;ratioP2;P2;SDS_P1;SDS_P2;PMS_P1;PMS_P2;Temp;Humidity;BMP_temperature;BMP_pressure;BME280_temperature;BME280_humidity;BME280_pressure;Samples;Min_cycle;Max_cycle;Signal;HPM_P1;HPM_P2
2022/07/21 00:00:06;;;;;;;12.87;6.70;;;;;;;;;;5076157;28;20521;-73
2022/07/21 00:02:35;;;;;;;7.60;6.00;;;;;;;;;;5075953;28;20493;-73
2022/07/21 00:05:02;;;;;;;15.50;6.13;;;;;;;;;;5076064;28;20452;-73
2022/07/21 00:07:29;;;;;;;9.50;6.60;;;;;;;;;;5076100;28;20452;-73
2022/07/21 00:09:56;;;;;;;23.23;6.00;;;;;;;;;;5076086;28;20447;-73
2022/07/21 00:12:23;;;;;;;5.43;4.70;;;;;;;;;;5075778;28;20475;-73
2022/07/21 00:14:50;;;;;;;8.37;5.30;;;;;;;;;;5075771;28;20459;-73
2022/07/21 00:17:18;;;;;;;10.00;4.93;;;;;;;;;;5075784;28;20459;-73
2022/07/21 00:19:46;;;;;;;7.00;5.17;;;;;;;;;;5075852;28;20467;-73
2022/07/21 00:22:13;;;;;;;23.53;6.17;;;;;;;;;;5075539;28;20494;-73
2022/07/21 00:24:40;;;;;;;6.43;4.60;;;;;;;;;;5075494;28;20459;-73
2022/07/21 00:27:07;;;;;;;17.20;5.63;;;;;;;;;;5075684;28;20451;-73
2022/07/21 00:29:34;;;;;;;9.67;4.50;;;;;;;;;;5075480;28;20451;-73
2022/07/21 00:32:03;;;;;;;11.20;4.93;;;;;;;;;;5075721;28;20874;-73
2022/07/21 00:34:30;;;;;;;6.17;4.70;;;;;;;;;;5075398;28;20808;-73
2022/07/21 00:36:59;;;;;;;6.30;4.90;;;;;;;;;;5075166;28;20452;-73
2022/07/21 00:39:26;;;;;;;8.80;4.90;;;;;;;;;;5075519;28;20455;-73
2022/07/21 00:41:53;;;;;;;4.90;3.90;;;;;;;;;;5075321;28;20472;-73
2022/07/21 00:44:21;;;;;;;12.03;4.37;;;;;;;;;;5075007;28;20470;-73
2022/07/21 00:46:48;;;;;;;7.30;4.37;;;;;;;;;;5074683;28;20812;-73
2022/07/21 00:49:15;;;;;;;12.10;4.37;;;;;;;;;;5075344;28;20452;-73
2022/07/21 00:51:42;;;;;;;7.97;4.23;;;;;;;;;;5075251;28;20472;-73
2022/07/21 00:54:11;;;;;;;5.43;4.30;;;;;;;;;;5074815;28;20451;-73
2022/07/21 00:56:38;;;;;;;4.53;4.07;;;;;;;;;;5075085;28;20455;-73
2022/07/21 00:59:05;;;;;;;6.67;4.33;;;;;;;;;;5075361;28;20454;-73
2022/07/21 01:01:32;;;;;;;6.73;4.53;;;;;;;;;;5075356;28;20440;-73
2022/07/21 01:03:59;;;;;;;6.73;4.47;;;;;;;;;;5074709;28;20487;-73
2022/07/21 01:06:26;;;;;;;5.47;4.57;;;;;;;;;;5074911;28;20460;-73
2022/07/21 01:08:54;;;;;;;7.60;4.40;;;;;;;;;;5075041;28;20941;-73
2022/07/21 01:11:25;;;;;;;5.60;4.00;;;;;;;;;;5074796;28;20589;-73
2022/07/21 01:13:52;;;;;;;7.87;4.57;;;;;;;;;;5074763;28;20448;-73
2022/07/21 01:16:19;;;;;;;6.77;5.03;;;;;;;;;;5074700;28;20456;-73
2022/07/21 01:18:47;;;;;;;5.20;4.70;;;;;;;;;;5074600;28;20458;-73
2022/07/21 01:21:28;;;;;;;5.50;4.50;;;;;;;;;;5074766;28;20971;-73
2022/07/21 01:23:55;;;;;;;5.20;4.67;;;;;;;;;;5074483;28;20483;-73
2022/07/21 01:26:22;;;;;;;6.40;5.40;;;;;;;;;;5074636;28;20447;-73
2022/07/21 01:28:49;;;;;;;5.30;4.40;;;;;;;;;;5074642;28;20463;-73
2022/07/21 01:31:16;;;;;;;4.63;4.23;;;;;;;;;;5074287;28;20451;-73
2022/07/21 01:33:44;;;;;;;8.40;5.10;;;;;;;;;;5074323;28;20451;-73
2022/07/21 01:36:11;;;;;;;11.60;4.73;;;;;;;;;;5073895;28;20451;-73
2022/07/21 01:41:29;;;;;;;13.30;5.53;;;;;;;;;;5074372;28;20805;-73
2022/07/21 01:43:57;;;;;;;10.80;5.97;;;;;;;;;;5074017;28;20848;-73
2022/07/21 01:46:24;;;;;;;8.07;5.27;;;;;;;;;;5074095;28;20945;-74
2022/07/21 01:48:51;;;;;;;5.73;5.00;;;;;;;;;;5074195;28;20456;-73
2022/07/21 01:51:18;;;;;;;9.00;5.67;;;;;;;;;;5073871;28;20456;-73
2022/07/21 01:53:47;;;;;;;5.23;4.73;;;;;;;;;;5074115;28;20956;-73
2022/07/21 01:56:14;;;;;;;5.50;5.00;;;;;;;;;;5073694;28;20957;-73
2022/07/21 01:58:41;;;;;;;8.07;5.23;;;;;;;;;;5073978;28;20455;-73
2022/07/21 02:01:08;;;;;;;10.80;5.57;;;;;;;;;;5073746;28;20463;-73
2022/07/21 02:03:35;;;;;;;6.90;5.30;;;;;;;;;;5073416;28;20836;-73
2022/07/21 02:06:03;;;;;;;6.73;4.93;;;;;;;;;;5073767;28;20448;-73
2022/07/21 02:08:30;;;;;;;6.60;5.40;;;;;;;;;;5073665;28;20459;-73
2022/07/21 02:10:58;;;;;;;7.13;5.57;;;;;;;;;;5073635;28;20455;-73
2022/07/21 02:13:26;;;;;;;9.80;5.80;;;;;;;;;;5073364;28;20476;-73
2022/07/21 02:15:53;;;;;;;5.90;5.27;;;;;;;;;;5073494;28;20452;-73
2022/07/21 02:18:20;;;;;;;10.27;6.17;;;;;;;;;;5073521;28;20455;-73
2022/07/21 02:20:48;;;;;;;12.33;4.90;;;;;;;;;;5073653;28;20452;-73
2022/07/21 02:23:15;;;;;;;7.10;5.00;;;;;;;;;;5073083;28;20498;-73
2022/07/21 02:25:42;;;;;;;5.50;4.60;;;;;;;;;;5073119;28;20448;-73
2022/07/21 02:28:11;;;;;;;6.17;5.00;;;;;;;;;;5073223;28;20451;-73
2022/07/21 02:30:38;;;;;;;11.43;4.33;;;;;;;;;;5073511;28;20476;-73
2022/07/21 02:33:05;;;;;;;8.90;6.10;;;;;;;;;;5073442;28;20467;-73
2022/07/21 02:35:32;;;;;;;8.03;6.30;;;;;;;;;;5073040;28;20523;-73
2022/07/21 02:37:59;;;;;;;7.60;5.60;;;;;;;;;;5072773;28;20452;-73
2022/07/21 02:40:27;;;;;;;7.80;5.27;;;;;;;;;;5073457;28;20447;-73
2022/07/21 02:42:54;;;;;;;6.60;4.43;;;;;;;;;;5072926;28;20866;-73
2022/07/21 02:45:22;;;;;;;6.77;4.37;;;;;;;;;;5073040;28;20463;-73
2022/07/21 02:47:51;;;;;;;4.63;4.23;;;;;;;;;;5073187;28;20456;-73
2022/07/21 02:50:18;;;;;;;7.33;5.00;;;;;;;;;;5073312;28;20447;-73
2022/07/21 02:52:45;;;;;;;14.93;5.80;;;;;;;;;;5073045;28;20475;-73
2022/07/21 02:55:12;;;;;;;8.10;4.90;;;;;;;;;;5072902;28;20964;-73
2022/07/21 02:57:39;;;;;;;12.53;5.60;;;;;;;;;;5073175;28;20455;-73
2022/07/21 03:00:08;;;;;;;6.40;5.80;;;;;;;;;;5073165;28;20956;-73
2022/07/21 03:02:36;;;;;;;6.40;4.30;;;;;;;;;;5072692;28;20475;-73
2022/07/21 03:05:04;;;;;;;5.77;5.20;;;;;;;;;;5072698;28;20957;-73
2022/07/21 03:07:31;;;;;;;6.53;5.10;;;;;;;;;;5072734;28;20460;-73
2022/07/21 03:09:58;;;;;;;7.83;4.80;;;;;;;;;;5072471;28;20956;-73
2022/07/21 03:12:25;;;;;;;7.70;4.80;;;;;;;;;;5072881;28;20542;-73
2022/07/21 03:14:53;;;;;;;8.67;6.23;;;;;;;;;;5072740;28;20454;-73
2022/07/21 03:17:20;;;;;;;9.13;5.50;;;;;;;;;;5072776;28;20485;-73
2022/07/21 03:19:48;;;;;;;7.00;6.30;;;;;;;;;;5072910;28;20456;-73
2022/07/21 03:22:15;;;;;;;6.70;5.70;;;;;;;;;;5072718;28;20471;-73
2022/07/21 03:24:42;;;;;;;8.33;6.80;;;;;;;;;;5072519;28;20488;-73
2022/07/21 03:27:09;;;;;;;5.63;5.00;;;;;;;;;;5072720;28;20447;-73
2022/07/21 03:29:36;;;;;;;7.00;4.60;;;;;;;;;;5072775;28;20454;-73
2022/07/21 03:32:03;;;;;;;9.00;5.90;;;;;;;;;;5072495;28;20482;-73
2022/07/21 03:34:31;;;;;;;6.57;5.17;;;;;;;;;;5072395;28;20444;-73
2022/07/21 03:36:59;;;;;;;5.63;4.33;;;;;;;;;;5072189;28;20452;-73
2022/07/21 03:39:26;;;;;;;5.73;4.97;;;;;;;;;;5072756;28;20456;-73
2022/07/21 03:41:53;;;;;;;6.57;4.80;;;;;;;;;;5072660;28;20976;-73
2022/07/21 03:44:20;;;;;;;7.43;5.10;;;;;;;;;;5072148;28;20866;-73
2022/07/21 03:46:47;;;;;;;7.97;4.80;;;;;;;;;;5072819;28;20929;-73
2022/07/21 03:49:14;;;;;;;5.50;5.00;;;;;;;;;;5072461;28;20451;-73
2022/07/21 03:51:41;;;;;;;9.37;4.97;;;;;;;;;;5072662;28;20502;-73
2022/07/21 03:54:10;;;;;;;5.37;4.87;;;;;;;;;;5072411;28;20447;-73
2022/07/21 03:56:37;;;;;;;8.20;6.37;;;;;;;;;;5072622;28;20459;-73
2022/07/21 03:59:04;;;;;;;9.30;6.70;;;;;;;;;;5072466;28;20459;-75
2022/07/21 04:01:31;;;;;;;6.80;4.83;;;;;;;;;;5072531;28;20452;-73
2022/07/21 04:03:58;;;;;;;14.23;5.13;;;;;;;;;;5072229;28;21011;-73
2022/07/21 04:06:25;;;;;;;8.20;6.13;;;;;;;;;;5072283;28;20957;-73
2022/07/21 04:08:52;;;;;;;9.13;4.63;;;;;;;;;;5072437;28;20833;-73
2022/07/21 04:11:21;;;;;;;5.27;4.77;;;;;;;;;;5072248;28;20456;-73
2022/07/21 04:13:48;;;;;;;5.93;4.43;;;;;;;;;;5072158;28;20456;-73
2022/07/21 04:16:15;;;;;;;6.10;5.53;;;;;;;;;;5072252;28;20451;-73
2022/07/21 04:18:42;;;;;;;5.97;4.80;;;;;;;;;;5072272;28;20459;-73
2022/07/21 04:21:09;;;;;;;6.30;4.87;;;;;;;;;;5073894;28;20463;-73
2022/07/21 04:23:36;;;;;;;6.30;5.67;;;;;;;;;;5075519;28;20495;-73
2022/07/21 04:26:03;;;;;;;5.73;4.60;;;;;;;;;;5075673;28;20456;-73
2022/07/21 04:28:31;;;;;;;8.13;4.80;;;;;;;;;;5075598;28;20444;-73
2022/07/21 04:30:58;;;;;;;4.63;4.23;;;;;;;;;;5075644;28;20458;-73
2022/07/21 04:33:26;;;;;;;4.43;3.90;;;;;;;;;;5075502;28;20472;-73
2022/07/21 04:35:53;;;;;;;6.90;4.40;;;;;;;;;;5075218;28;20455;-73
2022/07/21 04:38:20;;;;;;;5.70;4.20;;;;;;;;;;5075638;28;20456;-73
2022/07/21 04:40:47;;;;;;;7.77;5.13;;;;;;;;;;5075456;28;20449;-73
2022/07/21 04:43:14;;;;;;;6.17;5.30;;;;;;;;;;5075114;28;20484;-73
2022/07/21 04:45:42;;;;;;;9.30;6.03;;;;;;;;;;5074898;28;20483;-73
2022/07/21 04:48:09;;;;;;;6.83;5.40;;;;;;;;;;5075337;28;20634;-73
2022/07/21 04:50:37;;;;;;;5.30;4.80;;;;;;;;;;5075217;28;20463;-73
2022/07/21 04:53:04;;;;;;;4.60;4.20;;;;;;;;;;5075176;28;21052;-73
2022/07/21 04:55:31;;;;;;;6.60;5.50;;;;;;;;;;5074888;28;20487;-73
2022/07/21 04:57:58;;;;;;;6.83;5.00;;;;;;;;;;5075161;28;20447;-73
2022/07/21 05:00:26;;;;;;;4.33;3.93;;;;;;;;;;5073969;28;20476;-73
2022/07/21 05:02:55;;;;;;;6.80;4.10;;;;;;;;;;5074162;28;20533;-73
2022/07/21 05:05:23;;;;;;;5.90;3.63;;;;;;;;;;5088550;28;21026;-73
2022/07/21 05:07:50;;;;;;;4.03;3.60;;;;;;;;;;5094015;28;20542;-73
2022/07/21 05:10:18;;;;;;;6.97;5.30;;;;;;;;;;5094841;28;20451;-73
2022/07/21 05:12:46;;;;;;;4.70;4.30;;;;;;;;;;5094871;28;20509;-73
2022/07/21 05:15:13;;;;;;;5.93;5.30;;;;;;;;;;5094391;28;20450;-73
2022/07/21 05:17:41;;;;;;;5.40;4.17;;;;;;;;;;5095062;28;20450;-73
2022/07/21 05:20:11;;;;;;;7.27;4.90;;;;;;;;;;5094879;28;20457;-73
2022/07/21 05:22:38;;;;;;;5.23;4.73;;;;;;;;;;5094634;28;20475;-73
2022/07/21 05:25:06;;;;;;;6.23;5.20;;;;;;;;;;5094596;28;20482;-73
2022/07/21 05:27:33;;;;;;;7.50;5.87;;;;;;;;;;5094771;28;20938;-73
2022/07/21 05:30:00;;;;;;;6.87;5.67;;;;;;;;;;5094749;28;20443;-73
2022/07/21 05:32:27;;;;;;;5.60;5.00;;;;;;;;;;5094178;28;20888;-73
2022/07/21 05:34:54;;;;;;;5.70;4.80;;;;;;;;;;5094514;28;20802;-73
2022/07/21 05:37:23;;;;;;;5.30;4.80;;;;;;;;;;5094179;28;20804;-73
2022/07/21 05:39:50;;;;;;;3.60;3.30;;;;;;;;;;5095015;28;20450;-72
2022/07/21 05:42:17;;;;;;;6.00;4.77;;;;;;;;;;5094111;28;20463;-72
2022/07/21 05:44:44;;;;;;;10.60;4.33;;;;;;;;;;5094167;28;20491;-72
2022/07/21 05:47:11;;;;;;;7.47;5.47;;;;;;;;;;5094165;28;20451;-72
2022/07/21 05:49:38;;;;;;;10.70;4.97;;;;;;;;;;5094590;28;20924;-72
2022/07/21 05:52:06;;;;;;;5.43;4.93;;;;;;;;;;5094297;28;20474;-72
2022/07/21 05:54:34;;;;;;;5.20;4.40;;;;;;;;;;5094151;28;20451;-72
2022/07/21 05:57:02;;;;;;;5.00;4.40;;;;;;;;;;5094372;28;20803;-72
2022/07/21 05:59:29;;;;;;;6.93;4.63;;;;;;;;;;5094072;28;20462;-72
2022/07/21 06:01:57;;;;;;;10.80;5.23;;;;;;;;;;5094032;28;20466;-72
2022/07/21 06:04:24;;;;;;;4.77;4.37;;;;;;;;;;5093531;28;20685;-72
2022/07/21 06:06:52;;;;;;;6.40;4.87;;;;;;;;;;5093967;28;20446;-72
2022/07/21 06:09:19;;;;;;;9.37;6.00;;;;;;;;;;5093821;28;20462;-72
2022/07/21 06:11:47;;;;;;;7.30;6.10;;;;;;;;;;5094187;28;20475;-72
2022/07/21 06:14:14;;;;;;;6.17;5.57;;;;;;;;;;5093518;28;20458;-72
2022/07/21 06:16:41;;;;;;;11.93;7.57;;;;;;;;;;5093730;28;20463;-72
2022/07/21 06:19:09;;;;;;;7.23;5.47;;;;;;;;;;5093749;28;20450;-72
2022/07/21 06:21:36;;;;;;;7.47;6.17;;;;;;;;;;5093917;28;20474;-72
2022/07/21 06:24:04;;;;;;;7.70;6.00;;;;;;;;;;5093362;28;20518;-72
2022/07/21 06:26:31;;;;;;;11.90;5.50;;;;;;;;;;5092204;28;21534;-72
2022/07/21 06:28:59;;;;;;;10.53;6.53;;;;;;;;;;5092297;28;20459;-72
2022/07/21 06:31:26;;;;;;;5.63;4.77;;;;;;;;;;5093370;28;20467;-72
2022/07/21 06:33:53;;;;;;;6.13;5.40;;;;;;;;;;5093328;28;20458;-72
2022/07/21 06:36:21;;;;;;;10.70;5.27;;;;;;;;;;5092876;28;20813;-72
2022/07/21 06:38:48;;;;;;;6.17;5.00;;;;;;;;;;5093044;28;20456;-72
2022/07/21 06:41:15;;;;;;;5.20;4.70;;;;;;;;;;5082303;28;20447;-72
2022/07/21 06:43:42;;;;;;;7.53;5.10;;;;;;;;;;5091056;28;20469;-72
2022/07/21 06:46:10;;;;;;;5.90;4.47;;;;;;;;;;5091883;28;20910;-72
2022/07/21 06:48:37;;;;;;;5.50;4.40;;;;;;;;;;5091866;28;20820;-72
2022/07/21 06:51:04;;;;;;;4.83;4.43;;;;;;;;;;5092052;28;20454;-72
2022/07/21 06:53:31;;;;;;;7.30;5.30;;;;;;;;;;5091072;28;20839;-72
2022/07/21 06:55:59;;;;;;;6.10;5.47;;;;;;;;;;5091920;28;20461;-72
2022/07/21 06:58:27;;;;;;;8.53;7.77;;;;;;;;;;5091607;28;20451;-72
2022/07/21 07:00:54;;;;;;;7.50;6.77;;;;;;;;;;5091753;28;20454;-72
2022/07/21 07:03:22;;;;;;;15.43;7.60;;;;;;;;;;5091677;28;20469;-72
2022/07/21 07:05:50;;;;;;;7.20;6.60;;;;;;;;;;5091529;28;20494;-72
2022/07/21 07:08:17;;;;;;;10.30;8.07;;;;;;;;;;5091505;28;20833;-72
2022/07/21 07:10:45;;;;;;;7.47;6.87;;;;;;;;;;5091474;28;20454;-72
2022/07/21 07:13:13;;;;;;;7.87;7.17;;;;;;;;;;5091553;28;20480;-72
2022/07/21 07:15:40;;;;;;;9.20;7.80;;;;;;;;;;5092246;28;20542;-72
2022/07/21 07:18:07;;;;;;;10.17;8.03;;;;;;;;;;5092962;28;20462;-72
2022/07/21 07:20:36;;;;;;;10.53;7.57;;;;;;;;;;5092566;28;20827;-72
2022/07/21 07:23:04;;;;;;;16.70;9.60;;;;;;;;;;5093017;28;20470;-72
2022/07/21 07:25:31;;;;;;;9.00;7.60;;;;;;;;;;5092311;28;20489;-72
2022/07/21 07:27:58;;;;;;;9.10;8.30;;;;;;;;;;5092938;28;20458;-72
2022/07/21 07:30:25;;;;;;;8.70;7.90;;;;;;;;;;5092886;28;20459;-72
2022/07/21 07:32:52;;;;;;;10.70;6.53;;;;;;;;;;5093031;28;21002;-72
2022/07/21 07:35:19;;;;;;;8.17;7.33;;;;;;;;;;5092660;28;20951;-72
2022/07/21 07:37:48;;;;;;;9.50;7.33;;;;;;;;;;5092581;28;20454;-72
2022/07/21 07:40:16;;;;;;;7.47;6.70;;;;;;;;;;5092825;28;20451;-72
2022/07/21 07:42:44;;;;;;;8.20;7.40;;;;;;;;;;5092687;28;20489;-72
2022/07/21 07:45:11;;;;;;;7.73;7.03;;;;;;;;;;5092762;28;20482;-72
2022/07/21 07:47:39;;;;;;;9.37;8.47;;;;;;;;;;5092810;28;20462;-72
2022/07/21 07:50:08;;;;;;;8.90;7.70;;;;;;;;;;5092687;28;20450;-72
2022/07/21 07:52:35;;;;;;;12.97;8.30;;;;;;;;;;5092984;28;21042;-72
2022/07/21 07:55:07;;;;;;;7.90;7.10;;;;;;;;;;5094174;28;20470;-72
2022/07/21 07:57:35;;;;;;;9.10;8.10;;;;;;;;;;5095837;28;20931;-72
2022/07/21 08:00:02;;;;;;;8.13;7.30;;;;;;;;;;5095863;28;20458;-72
2022/07/21 08:02:29;;;;;;;8.60;7.90;;;;;;;;;;5095657;28;20501;-72
2022/07/21 08:04:56;;;;;;;10.93;9.07;;;;;;;;;;5095369;28;20494;-72
2022/07/21 08:07:23;;;;;;;8.87;8.00;;;;;;;;;;5095436;28;20454;-72
2022/07/21 08:09:50;;;;;;;8.80;8.00;;;;;;;;;;5095692;28;20450;-72
2022/07/21 08:12:19;;;;;;;10.60;8.53;;;;;;;;;;5096033;28;20470;-72
2022/07/21 08:14:46;;;;;;;10.53;8.73;;;;;;;;;;5096128;28;20450;-72
2022/07/21 08:17:13;;;;;;;10.03;7.77;;;;;;;;;;5096366;28;20450;-72
2022/07/21 08:19:40;;;;;;;10.00;8.40;;;;;;;;;;5096239;28;20449;-72
2022/07/21 08:22:07;;;;;;;10.00;9.00;;;;;;;;;;5095946;28;20474;-72
2022/07/21 08:24:34;;;;;;;9.20;8.40;;;;;;;;;;5096017;28;20486;-72
2022/07/21 08:27:02;;;;;;;8.83;8.10;;;;;;;;;;5096150;28;20450;-72
2022/07/21 08:29:30;;;;;;;8.87;7.90;;;;;;;;;;5096166;28;20450;-72
2022/07/21 08:31:58;;;;;;;9.57;8.57;;;;;;;;;;5095918;28;20470;-72
2022/07/21 08:34:25;;;;;;;9.50;8.63;;;;;;;;;;5095604;28;20553;-72
2022/07/21 08:36:52;;;;;;;11.50;10.30;;;;;;;;;;5095401;28;20820;-72
2022/07/21 08:39:19;;;;;;;10.50;9.50;;;;;;;;;;5095721;28;20461;-72
2022/07/21 08:41:47;;;;;;;9.23;8.43;;;;;;;;;;5095977;28;20847;-72
2022/07/21 08:44:14;;;;;;;11.07;9.57;;;;;;;;;;5095395;28;20462;-72
2022/07/21 08:46:43;;;;;;;11.27;10.20;;;;;;;;;;5095554;28;20486;-72
2022/07/21 08:49:11;;;;;;;11.60;10.40;;;;;;;;;;5095906;28;20459;-72
2022/07/21 08:51:38;;;;;;;10.60;9.60;;;;;;;;;;5095609;28;20478;-72
2022/07/21 08:54:06;;;;;;;11.30;8.97;;;;;;;;;;5095402;28;20827;-72
2022/07/21 08:56:33;;;;;;;9.67;8.87;;;;;;;;;;5095580;28;20472;-72
2022/07/21 08:59:00;;;;;;;10.33;8.60;;;;;;;;;;5095414;28;20460;-72
2022/07/21 09:01:27;;;;;;;9.30;8.50;;;;;;;;;;5095288;28;21032;-72
2022/07/21 09:03:56;;;;;;;10.37;9.37;;;;;;;;;;5095310;28;20450;-72
2022/07/21 09:06:23;;;;;;;11.07;9.90;;;;;;;;;;5094471;28;21003;-72
2022/07/21 09:08:51;;;;;;;9.20;8.47;;;;;;;;;;5095356;28;20969;-72
2022/07/21 09:11:20;;;;;;;12.10;8.97;;;;;;;;;;5095102;28;20482;-72
2022/07/21 09:13:51;;;;;;;11.80;10.20;;;;;;;;;;5095042;28;20507;-72
2022/07/21 09:16:33;;;;;;;8.97;8.13;;;;;;;;;;5095110;28;20465;-72
2022/07/21 09:19:01;;;;;;;9.60;8.70;;;;;;;;;;5095243;28;20451;-72
2022/07/21 09:21:29;;;;;;;12.57;9.00;;;;;;;;;;5095042;28;20443;-72
2022/07/21 09:24:11;;;;;;;9.23;8.43;;;;;;;;;;5094769;28;20508;-72
2022/07/21 09:26:57;;;;;;;9.83;8.93;;;;;;;;;;5094917;28;20486;-72
2022/07/21 09:29:24;;;;;;;9.53;8.43;;;;;;;;;;5094765;28;20451;-72
2022/07/21 09:31:51;;;;;;;11.97;9.23;;;;;;;;;;5094887;28;20467;-72
2022/07/21 09:34:20;;;;;;;8.53;7.73;;;;;;;;;;5094582;28;20477;-72
2022/07/21 09:36:56;;;;;;;9.27;8.40;;;;;;;;;;5094264;28;20450;-72
2022/07/21 09:39:38;;;;;;;10.40;8.83;;;;;;;;;;5094676;28;20453;-72
2022/07/21 09:42:13;;;;;;;12.83;11.63;;;;;;;;;;5094488;28;20983;-72
2022/07/21 09:44:42;;;;;;;9.27;8.37;;;;;;;;;;5094454;28;20450;-72
2022/07/21 09:47:13;;;;;;;8.33;7.53;;;;;;;;;;5094501;28;20451;-72
2022/07/21 09:49:42;;;;;;;8.80;8.00;;;;;;;;;;5094628;28;20447;-72
2022/07/21 09:52:23;;;;;;;8.83;8.03;;;;;;;;;;5094395;28;20470;-72
2022/07/21 09:54:50;;;;;;;8.90;8.00;;;;;;;;;;5094236;28;20473;-72
2022/07/21 09:57:17;;;;;;;9.40;8.60;;;;;;;;;;5094501;28;20450;-72
2022/07/21 09:59:45;;;;;;;9.20;7.67;;;;;;;;;;5093974;28;20450;-72
2022/07/21 10:02:16;;;;;;;8.40;7.40;;;;;;;;;;5094193;28;20473;-72
2022/07/21 10:04:45;;;;;;;7.70;7.03;;;;;;;;;;5094065;28;20450;-72
2022/07/21 10:07:12;;;;;;;8.60;7.70;;;;;;;;;;5093981;28;20447;-72
2022/07/21 10:09:39;;;;;;;8.77;7.83;;;;;;;;;;5094129;28;20812;-72
2022/07/21 10:12:07;;;;;;;7.93;7.23;;;;;;;;;;5093970;28;20478;-72
2022/07/21 10:14:34;;;;;;;11.07;7.37;;;;;;;;;;5093621;28;20458;-72
2022/07/21 10:17:02;;;;;;;8.63;7.83;;;;;;;;;;5094111;28;20447;-72
2022/07/21 10:19:30;;;;;;;8.57;7.77;;;;;;;;;;5094005;28;20450;-72
2022/07/21 10:22:03;;;;;;;8.47;7.67;;;;;;;;;;5093861;28;20459;-72
2022/07/21 10:24:30;;;;;;;7.57;6.90;;;;;;;;;;5093514;28;20958;-72
2022/07/21 10:27:01;;;;;;;8.37;7.60;;;;;;;;;;5093598;28;20482;-72
2022/07/21 10:29:46;;;;;;;8.53;7.53;;;;;;;;;;5093854;28;20450;-72
2022/07/21 10:32:13;;;;;;;7.70;6.90;;;;;;;;;;5083398;28;20478;-72
2022/07/21 10:34:40;;;;;;;7.83;6.80;;;;;;;;;;5093602;28;20950;-72
2022/07/21 10:37:08;;;;;;;8.50;7.23;;;;;;;;;;5093213;28;20806;-72
2022/07/21 10:39:37;;;;;;;7.40;6.77;;;;;;;;;;5093597;28;20857;-72
2022/07/21 10:42:15;;;;;;;8.60;7.80;;;;;;;;;;5093447;28;20467;-72
2022/07/21 10:44:44;;;;;;;8.07;7.37;;;;;;;;;;5093480;28;20442;-72
2022/07/21 10:47:12;;;;;;;7.37;6.43;;;;;;;;;;5093512;28;20483;-72
2022/07/21 10:49:48;;;;;;;7.73;7.03;;;;;;;;;;5093566;28;20474;-72
2022/07/21 10:52:34;;;;;;;7.53;6.77;;;;;;;;;;5093140;28;20477;-72
2022/07/21 10:55:23;;;;;;;7.33;6.80;;;;;;;;;;5093275;28;20453;-72
2022/07/21 10:58:11;;;;;;;7.27;6.57;;;;;;;;;;5093339;28;20541;-72
2022/07/21 11:00:38;;;;;;;7.20;6.50;;;;;;;;;;5093237;28;20463;-72
2022/07/21 11:03:14;;;;;;;8.70;6.77;;;;;;;;;;5093167;28;20459;-72
2022/07/21 11:06:01;;;;;;;7.17;6.50;;;;;;;;;;5093163;28;20482;-72
2022/07/21 11:08:31;;;;;;;7.23;6.20;;;;;;;;;;5092965;28;20827;-72
2022/07/21 11:11:08;;;;;;;6.87;6.37;;;;;;;;;;5093456;28;20450;-72
2022/07/21 11:13:50;;;;;;;7.70;6.87;;;;;;;;;;5092858;28;20470;-72
2022/07/21 11:16:18;;;;;;;8.17;6.30;;;;;;;;;;5092980;28;20446;-72
2022/07/21 11:18:45;;;;;;;6.87;6.20;;;;;;;;;;5093230;28;20496;-72
2022/07/21 11:21:14;;;;;;;7.47;6.67;;;;;;;;;;5093365;28;20446;-72
2022/07/21 11:23:43;;;;;;;8.13;6.17;;;;;;;;;;5092953;28;20459;-72
2022/07/21 11:26:11;;;;;;;6.90;6.30;;;;;;;;;;5092978;28;20482;-72
2022/07/21 11:28:39;;;;;;;10.10;6.87;;;;;;;;;;5093096;28;20447;-72
2022/07/21 11:31:10;;;;;;;7.30;6.20;;;;;;;;;;5096907;28;20963;-72
2022/07/21 11:33:39;;;;;;;6.30;5.80;;;;;;;;;;5096893;28;20478;-72
2022/07/21 11:36:06;;;;;;;7.60;6.90;;;;;;;;;;5096805;28;20451;-72
2022/07/21 11:38:34;;;;;;;6.80;6.20;;;;;;;;;;5097091;28;20451;-72
2022/07/21 11:41:17;;;;;;;6.80;6.30;;;;;;;;;;5097110;28;20457;-72
2022/07/21 11:43:45;;;;;;;7.70;6.27;;;;;;;;;;5096662;28;20462;-72
2022/07/21 11:46:13;;;;;;;8.23;7.43;;;;;;;;;;5096856;28;20998;-72
2022/07/21 11:48:41;;;;;;;6.70;5.90;;;;;;;;;;5096837;28;20442;-72
2022/07/21 11:51:08;;;;;;;7.50;6.80;;;;;;;;;;5096801;28;20450;-72
2022/07/21 11:53:36;;;;;;;7.70;7.00;;;;;;;;;;5096586;28;20490;-72
2022/07/21 11:56:03;;;;;;;7.33;6.63;;;;;;;;;;5096796;28;20450;-72
2022/07/21 11:58:30;;;;;;;8.27;6.63;;;;;;;;;;5096323;28;20940;-72
2022/07/21 12:01:06;;;;;;;7.33;6.60;;;;;;;;;;5096702;28;20450;-72
2022/07/21 12:03:34;;;;;;;7.27;6.43;;;;;;;;;;5096262;28;20474;-72
2022/07/21 12:06:02;;;;;;;9.67;6.47;;;;;;;;;;5096513;28;20517;-72
2022/07/21 12:08:31;;;;;;;11.47;7.97;;;;;;;;;;5096470;28;20457;-72
2022/07/21 12:11:06;;;;;;;7.13;6.43;;;;;;;;;;5096553;28;20507;-72
2022/07/21 12:13:48;;;;;;;7.63;7.03;;;;;;;;;;5096068;28;20496;-72
2022/07/21 12:16:15;;;;;;;9.60;7.40;;;;;;;;;;5096233;28;20454;-72
2022/07/21 12:18:43;;;;;;;7.80;7.20;;;;;;;;;;5096533;28;20469;-72
2022/07/21 12:21:11;;;;;;;8.53;7.73;;;;;;;;;;5096148;28;20442;-72
2022/07/21 12:23:38;;;;;;;6.83;6.20;;;;;;;;;;5095981;28;20881;-72
2022/07/21 12:26:06;;;;;;;7.00;6.40;;;;;;;;;;5096053;28;20486;-72
2022/07/21 12:28:46;;;;;;;6.33;5.80;;;;;;;;;;5096144;28;20450;-72
2022/07/21 12:31:16;;;;;;;7.43;6.50;;;;;;;;;;5096138;28;20623;-72
2022/07/21 12:33:43;;;;;;;6.60;6.10;;;;;;;;;;5095488;28;20470;-72
2022/07/21 12:36:12;;;;;;;6.77;6.17;;;;;;;;;;5095402;28;20446;-73
2022/07/21 12:38:39;;;;;;;11.43;6.67;;;;;;;;;;5095886;28;20455;-73
2022/07/21 12:41:07;;;;;;;8.43;7.63;;;;;;;;;;5094596;28;20944;-73
2022/07/21 12:43:34;;;;;;;8.67;7.97;;;;;;;;;;5095444;28;20979;-73
2022/07/21 12:46:02;;;;;;;12.33;8.57;;;;;;;;;;5095670;28;20486;-73
2022/07/21 12:48:30;;;;;;;8.00;7.30;;;;;;;;;;5095648;28;20454;-73
2022/07/21 12:50:59;;;;;;;9.50;8.60;;;;;;;;;;5095737;28;20446;-73
2022/07/21 12:53:27;;;;;;;10.47;8.43;;;;;;;;;;5095524;28;21066;-74
2022/07/21 12:55:54;;;;;;;9.60;8.83;;;;;;;;;;5095501;28;20459;-73
2022/07/21 12:58:22;;;;;;;8.97;8.17;;;;;;;;;;5095437;28;20439;-73
2022/07/21 13:00:49;;;;;;;10.67;8.27;;;;;;;;;;5095836;28;20927;-73
2022/07/21 13:03:16;;;;;;;10.30;9.30;;;;;;;;;;5095096;28;20475;-73
2022/07/21 13:05:43;;;;;;;9.03;8.23;;;;;;;;;;5095220;28;21028;-73
2022/07/21 13:08:10;;;;;;;10.83;8.50;;;;;;;;;;5095305;28;20435;-74
2022/07/21 13:10:39;;;;;;;9.30;8.40;;;;;;;;;;5086216;28;20451;-73
2022/07/21 13:13:06;;;;;;;10.50;8.70;;;;;;;;;;5075015;28;20475;-73
2022/07/21 13:15:33;;;;;;;15.73;14.33;;;;;;;;;;5074657;28;20460;-73
2022/07/21 13:18:00;;;;;;;9.97;9.07;;;;;;;;;;5074756;28;20451;-73
2022/07/21 13:20:27;;;;;;;8.80;8.10;;;;;;;;;;5082854;28;20451;-73
2022/07/21 13:22:55;;;;;;;10.70;8.37;;;;;;;;;;5095024;28;20841;-74
2022/07/21 13:25:22;;;;;;;9.90;8.97;;;;;;;;;;5094508;28;20450;-72
2022/07/21 13:27:50;;;;;;;9.97;9.13;;;;;;;;;;5094827;28;20486;-75
2022/07/21 13:30:18;;;;;;;10.60;9.50;;;;;;;;;;5094797;28;20877;-75
2022/07/21 13:32:45;;;;;;;9.40;8.43;;;;;;;;;;5094813;28;20505;-72
2022/07/21 13:35:13;;;;;;;8.87;8.13;;;;;;;;;;5093981;28;20447;-74
2022/07/21 13:37:40;;;;;;;9.10;8.17;;;;;;;;;;5094825;28;20447;-74
2022/07/21 13:40:07;;;;;;;9.87;7.90;;;;;;;;;;5094458;28;20455;-73
2022/07/21 13:42:34;;;;;;;10.47;9.57;;;;;;;;;;5092425;28;20833;-74
2022/07/21 13:45:03;;;;;;;9.23;8.47;;;;;;;;;;5090651;28;20443;-74
2022/07/21 13:47:30;;;;;;;11.20;9.97;;;;;;;;;;5091044;28;20496;-73
2022/07/21 13:49:57;;;;;;;10.77;9.70;;;;;;;;;;5094083;28;20458;-72
2022/07/21 13:52:25;;;;;;;10.63;9.57;;;;;;;;;;5092873;28;20478;-73
2022/07/21 13:54:52;;;;;;;11.13;10.03;;;;;;;;;;5092219;28;20458;-72
2022/07/21 13:57:19;;;;;;;10.93;9.93;;;;;;;;;;5093108;28;20459;-72
2022/07/21 13:59:46;;;;;;;10.87;9.87;;;;;;;;;;5093286;28;20831;-73
2022/07/21 14:02:14;;;;;;;10.50;9.60;;;;;;;;;;5092764;28;20470;-73
2022/07/21 14:04:42;;;;;;;11.23;10.33;;;;;;;;;;5092787;28;20939;-73
2022/07/21 14:07:10;;;;;;;11.60;10.60;;;;;;;;;;5093113;28;20865;-73
2022/07/21 14:09:37;;;;;;;11.73;10.63;;;;;;;;;;5094109;28;20856;-73
2022/07/21 14:12:05;;;;;;;13.47;10.90;;;;;;;;;;5093857;28;20975;-73
2022/07/21 14:14:32;;;;;;;12.47;11.00;;;;;;;;;;5092848;28;20498;-74
2022/07/21 14:16:59;;;;;;;12.03;10.97;;;;;;;;;;5093325;28;20473;-72
2022/07/21 14:19:28;;;;;;;10.67;9.73;;;;;;;;;;5093244;28;20459;-73
2022/07/21 14:21:55;;;;;;;11.60;10.27;;;;;;;;;;5093664;28;20515;-73
2022/07/21 14:27:07;;;;;;;12.77;10.40;;;;;;;;;;5093492;28;20489;-74
2022/07/21 14:29:34;;;;;;;11.70;10.70;;;;;;;;;;5093908;28;20473;-73
2022/07/21 14:32:01;;;;;;;11.73;10.53;;;;;;;;;;5093488;28;20474;-74
2022/07/21 14:34:29;;;;;;;11.80;10.70;;;;;;;;;;5093351;28;20458;-74
2022/07/21 14:36:56;;;;;;;16.33;9.70;;;;;;;;;;5093815;28;20872;-72
2022/07/21 14:39:24;;;;;;;11.90;10.90;;;;;;;;;;5093521;28;20541;-74
2022/07/21 14:41:51;;;;;;;12.40;11.30;;;;;;;;;;5093582;28;20474;-73
2022/07/21 14:44:18;;;;;;;12.87;11.67;;;;;;;;;;5093285;28;20836;-74
2022/07/21 14:46:45;;;;;;;12.23;11.10;;;;;;;;;;5093631;28;20493;-73
2022/07/21 14:49:12;;;;;;;12.90;10.93;;;;;;;;;;5093352;28;20458;-73